sensor_id;sensor_type;location;lat;lon;timestamp;P1;durP1;ratioP1;P2;durP2;ratioP2
43861;SDS011;29510;52.140;5.034;2023-03-20T00:03:41;4.00;;;2.33;;
43861;SDS011;29510;52.140;5.034;2023-03-20T00:13:42;3.83;;;2.05;;
43861;SDS011;29510;52.140;5.034;2023-03-20T00:23:43;3.03;;;1.58;;
43861;SDS011;29510;52.140;5.034;2023-03-20T00:33:45;4.20;;;1.23;;
43861;SDS011;29510;52.140;5.034;2023-03-20T00:43:47;7.85;;;3.00;;
43861;SDS011;29510;52.140;5.034;2023-03-20T00:53:50;6.70;;;3.25;;
43861;SDS011;29510;52.140;5.034;2023-03-20T01:03:51;2.53;;;1.30;;
43861;SDS011;29510;52.140;5.034;2023-03-20T01:13:52;4.32;;;1.80;;
43861;SDS011;29510;52.140;5.034;2023-03-20T01:23:53;5.95;;;2.13;;
43861;SDS011;29510;52.140;5.034;2023-03-20T01:33:55;3.47;;;2.22;;
43861;SDS011;29510;52.140;5.034;2023-03-20T01:43:56;5.40;;;2.28;;
43861;SDS011;29510;52.140;5.034;2023-03-20T02:04:12;7.88;;;3.03;;
43861;SDS011;29510;52.140;5.034;2023-03-20T02:14:15;7.45;;;3.70;;
43861;SDS011;29510;52.140;5.034;2023-03-20T02:44:56;8.80;;;4.43;;
43861;SDS011;29510;52.140;5.034;2023-03-20T03:05:23;10.90;;;4.25;;
43861;SDS011;29510;52.140;5.034;2023-03-20T03:15:50;21.52;;;6.47;;
43861;SDS011;29510;52.140;5.034;2023-03-20T03:25:56;10.68;;;5.28;;
43861;SDS011;29510;52.140;5.034;2023-03-20T03:36:05;11.88;;;5.97;;
43861;SDS011;29510;52.140;5.034;2023-03-20T03:56:38;10.73;;;6.53;;
43861;SDS011;29510;52.140;5.034;2023-03-20T04:06:42;10.45;;;5.03;;
43861;SDS011;29510;52.140;5.034;2023-03-20T04:16:43;7.72;;;4.38;;
43861;SDS011;29510;52.140;5.034;2023-03-20T04:26:44;12.38;;;5.28;;
43861;SDS011;29510;52.140;5.034;2023-03-20T04:36:46;10.82;;;5.60;;
43861;SDS011;29510;52.140;5.034;2023-03-20T04:46:47;8.70;;;4.40;;
43861;SDS011;29510;52.140;5.034;2023-03-20T04:56:48;17.63;;;5.75;;
43861;SDS011;29510;52.140;5.034;2023-03-20T05:06:49;9.73;;;4.75;;
43861;SDS011;29510;52.140;5.034;2023-03-20T05:16:50;10.45;;;4.75;;
43861;SDS011;29510;52.140;5.034;2023-03-20T05:26:51;11.07;;;6.28;;
43861;SDS011;29510;52.140;5.034;2023-03-20T05:36:53;16.85;;;6.45;;
43861;SDS011;29510;52.140;5.034;2023-03-20T05:46:54;12.23;;;6.18;;
43861;SDS011;29510;52.140;5.034;2023-03-20T05:56:55;9.63;;;4.28;;
43861;SDS011;29510;52.140;5.034;2023-03-20T06:06:56;10.88;;;5.13;;
43861;SDS011;29510;52.140;5.034;2023-03-20T06:16:57;14.98;;;6.30;;
43861;SDS011;29510;52.140;5.034;2023-03-20T06:27:00;11.55;;;5.18;;
43861;SDS011;29510;52.140;5.034;2023-03-20T06:37:01;8.20;;;4.85;;
43861;SDS011;29510;52.140;5.034;2023-03-20T06:47:02;13.75;;;5.63;;
43861;SDS011;29510;52.140;5.034;2023-03-20T06:57:03;10.57;;;5.65;;
43861;SDS011;29510;52.140;5.034;2023-03-20T07:07:04;10.18;;;4.47;;
43861;SDS011;29510;52.140;5.034;2023-03-20T07:17:06;8.52;;;4.38;;
43861;SDS011;29510;52.140;5.034;2023-03-20T07:27:08;14.52;;;5.97;;
43861;SDS011;29510;52.140;5.034;2023-03-20T07:37:09;10.68;;;4.93;;
43861;SDS011;29510;52.140;5.034;2023-03-20T07:47:11;9.60;;;4.07;;
43861;SDS011;29510;52.140;5.034;2023-03-20T07:57:12;7.97;;;3.42;;
43861;SDS011;29510;52.140;5.034;2023-03-20T08:07:13;6.90;;;3.35;;
43861;SDS011;29510;52.140;5.034;2023-03-20T08:17:14;6.97;;;3.35;;
43861;SDS011;29510;52.140;5.034;2023-03-20T08:27:15;7.10;;;2.78;;
43861;SDS011;29510;52.140;5.034;2023-03-20T08:37:17;8.95;;;4.07;;
43861;SDS011;29510;52.140;5.034;2023-03-20T08:47:18;9.68;;;4.15;;
43861;SDS011;29510;52.140;5.034;2023-03-20T08:57:19;9.55;;;2.80;;
43861;SDS011;29510;52.140;5.034;2023-03-20T09:07:20;9.48;;;3.63;;
43861;SDS011;29510;52.140;5.034;2023-03-20T09:17:22;8.05;;;1.75;;
43861;SDS011;29510;52.140;5.034;2023-03-20T09:27:23;13.27;;;3.95;;
43861;SDS011;29510;52.140;5.034;2023-03-20T09:37:24;4.25;;;2.13;;
43861;SDS011;29510;52.140;5.034;2023-03-20T09:47:39;7.18;;;2.78;;
43861;SDS011;29510;52.140;5.034;2023-03-20T09:57:47;5.03;;;1.92;;
43861;SDS011;29510;52.140;5.034;2023-03-20T10:07:53;7.45;;;4.03;;
43861;SDS011;29510;52.140;5.034;2023-03-20T10:28:11;5.28;;;2.50;;
43861;SDS011;29510;52.140;5.034;2023-03-20T10:48:49;8.35;;;3.58;;
43861;SDS011;29510;52.140;5.034;2023-03-20T10:59:00;5.45;;;3.30;;
43861;SDS011;29510;52.140;5.034;2023-03-20T11:09:15;8.15;;;4.05;;
43861;SDS011;29510;52.140;5.034;2023-03-20T11:19:20;11.55;;;4.65;;
43861;SDS011;29510;52.140;5.034;2023-03-20T11:29:28;8.57;;;4.00;;
43861;SDS011;29510;52.140;5.034;2023-03-20T11:39:34;7.80;;;4.55;;
43861;SDS011;29510;52.140;5.034;2023-03-20T11:49:44;9.77;;;4.72;;
43861;SDS011;29510;52.140;5.034;2023-03-20T11:59:55;9.10;;;4.93;;
43861;SDS011;29510;52.140;5.034;2023-03-20T12:09:57;15.60;;;5.65;;
43861;SDS011;29510;52.140;5.034;2023-03-20T12:20:48;10.40;;;5.18;;
43861;SDS011;29510;52.140;5.034;2023-03-20T13:01:39;11.80;;;4.90;;
43861;SDS011;29510;52.140;5.034;2023-03-20T13:11:56;15.70;;;5.72;;
43861;SDS011;29510;52.140;5.034;2023-03-20T13:42:41;10.00;;;5.05;;
43861;SDS011;29510;52.140;5.034;2023-03-20T13:52:55;9.20;;;4.57;;
43861;SDS011;29510;52.140;5.034;2023-03-20T14:03:23;13.48;;;5.25;;
43861;SDS011;29510;52.140;5.034;2023-03-20T14:13:29;7.88;;;4.15;;
43861;SDS011;29510;52.140;5.034;2023-03-20T14:23:37;9.32;;;4.50;;
43861;SDS011;29510;52.140;5.034;2023-03-20T14:33:44;12.02;;;4.72;;
43861;SDS011;29510;52.140;5.034;2023-03-20T15:04:39;11.80;;;4.50;;
43861;SDS011;29510;52.140;5.034;2023-03-20T15:14:47;11.23;;;5.47;;
43861;SDS011;29510;52.140;5.034;2023-03-20T15:25:02;11.95;;;5.07;;
43861;SDS011;29510;52.140;5.034;2023-03-20T15:35:04;10.13;;;5.78;;
43861;SDS011;29510;52.140;5.034;2023-03-20T15:45:21;12.40;;;5.63;;
43861;SDS011;29510;52.140;5.034;2023-03-20T15:55:26;15.30;;;7.28;;
43861;SDS011;29510;52.140;5.034;2023-03-20T16:05:28;12.65;;;6.80;;
43861;SDS011;29510;52.140;5.034;2023-03-20T16:15:30;9.82;;;6.25;;
43861;SDS011;29510;52.140;5.034;2023-03-20T16:25:34;14.38;;;7.68;;
43861;SDS011;29510;52.140;5.034;2023-03-20T16:35:42;18.17;;;7.50;;
43861;SDS011;29510;52.140;5.034;2023-03-20T16:45:45;9.90;;;5.40;;
43861;SDS011;29510;52.140;5.034;2023-03-20T17:05:56;8.60;;;4.75;;
43861;SDS011;29510;52.140;5.034;2023-03-20T17:16:12;12.00;;;5.15;;
43861;SDS011;29510;52.140;5.034;2023-03-20T17:26:17;9.37;;;4.90;;
43861;SDS011;29510;52.140;5.034;2023-03-20T17:36:25;6.90;;;3.65;;
43861;SDS011;29510;52.140;5.034;2023-03-20T17:46:29;8.07;;;3.40;;
43861;SDS011;29510;52.140;5.034;2023-03-20T17:56:30;6.45;;;4.28;;
43861;SDS011;29510;52.140;5.034;2023-03-20T18:06:32;7.68;;;4.20;;
43861;SDS011;29510;52.140;5.034;2023-03-20T18:16:33;8.50;;;3.40;;
43861;SDS011;29510;52.140;5.034;2023-03-20T18:26:34;9.68;;;5.60;;
43861;SDS011;29510;52.140;5.034;2023-03-20T18:36:36;9.75;;;5.45;;
43861;SDS011;29510;52.140;5.034;2023-03-20T18:46:37;9.43;;;4.55;;
43861;SDS011;29510;52.140;5.034;2023-03-20T18:56:38;10.73;;;5.20;;
43861;SDS011;29510;52.140;5.034;2023-03-20T19:06:40;7.85;;;5.50;;
43861;SDS011;29510;52.140;5.034;2023-03-20T19:16:41;5.57;;;4.15;;
43861;SDS011;29510;52.140;5.034;2023-03-20T19:26:42;7.85;;;3.97;;
43861;SDS011;29510;52.140;5.034;2023-03-20T19:36:43;7.38;;;4.10;;
43861;SDS011;29510;52.140;5.034;2023-03-20T19:46:48;8.65;;;4.75;;
43861;SDS011;29510;52.140;5.034;2023-03-20T19:56:49;12.35;;;5.15;;
43861;SDS011;29510;52.140;5.034;2023-03-20T20:06:51;9.13;;;5.80;;
43861;SDS011;29510;52.140;5.034;2023-03-20T20:16:52;8.75;;;5.03;;
43861;SDS011;29510;52.140;5.034;2023-03-20T20:26:53;8.32;;;5.47;;
43861;SDS011;29510;52.140;5.034;2023-03-20T20:36:55;7.85;;;4.95;;
43861;SDS011;29510;52.140;5.034;2023-03-20T20:46:56;10.68;;;5.47;;
43861;SDS011;29510;52.140;5.034;2023-03-20T20:56:57;7.38;;;4.50;;
43861;SDS011;29510;52.140;5.034;2023-03-20T21:06:59;7.05;;;4.47;;
43861;SDS011;29510;52.140;5.034;2023-03-20T21:17:00;15.52;;;6.13;;
43861;SDS011;29510;52.140;5.034;2023-03-20T21:27:02;9.23;;;5.07;;
43861;SDS011;29510;52.140;5.034;2023-03-20T21:37:04;10.15;;;4.95;;
43861;SDS011;29510;52.140;5.034;2023-03-20T21:47:06;8.50;;;5.20;;
43861;SDS011;29510;52.140;5.034;2023-03-20T21:57:07;8.07;;;4.60;;
43861;SDS011;29510;52.140;5.034;2023-03-20T22:07:08;8.25;;;4.90;;
43861;SDS011;29510;52.140;5.034;2023-03-20T22:17:09;12.43;;;5.47;;
43861;SDS011;29510;52.140;5.034;2023-03-20T22:27:10;11.20;;;4.97;;
43861;SDS011;29510;52.140;5.034;2023-03-20T22:37:11;9.77;;;4.32;;
43861;SDS011;29510;52.140;5.034;2023-03-20T22:47:12;8.10;;;4.70;;
43861;SDS011;29510;52.140;5.034;2023-03-20T22:57:13;7.32;;;3.38;;
43861;SDS011;29510;52.140;5.034;2023-03-20T23:07:14;5.97;;;3.53;;
43861;SDS011;29510;52.140;5.034;2023-03-20T23:17:16;7.07;;;3.75;;
43861;SDS011;29510;52.140;5.034;2023-03-20T23:27:18;7.47;;;3.47;;
43861;SDS011;29510;52.140;5.034;2023-03-20T23:37:19;7.25;;;4.30;;
43861;SDS011;29510;52.140;5.034;2023-03-20T23:47:20;8.10;;;5.07;;
43861;SDS011;29510;52.140;5.034;2023-03-20T23:57:21;7.32;;;4.38;;
